Time;durP1;ratioP1;P1;durP2;ratioP2;P2;SDS_P1;SDS_P2;PMS_P1;PMS_P2;Temp;Humidity;BMP_temperature;BMP_pressure;BME280_temperature;BME280_humidity;BME280_pressure;Samples;Min_cycle;Max_cycle;Signal;HPM_P1;HPM_P2
2021/04/04 00:01:53;;;;;;;10.87;3.60;;;15.70;41.10;;;;;;5076027;28;20514;-53
2021/04/04 00:04:20;;;;;;;14.10;3.83;;;15.60;41.20;;;;;;5075957;28;20465;-51
2021/04/04 00:06:47;;;;;;;17.73;4.23;;;15.60;41.00;;;;;;5076288;28;20441;-53
2021/04/04 00:09:15;;;;;;;12.00;3.90;;;15.60;41.10;;;;;;5076237;28;20477;-53
2021/04/04 00:11:42;;;;;;;11.97;5.00;;;15.70;41.10;;;;;;5075842;28;20544;-55
2021/04/04 00:14:08;;;;;;;18.20;5.27;;;15.60;40.90;;;;;;5075860;28;20537;-52
2021/04/04 00:16:35;;;;;;;12.70;3.80;;;15.60;40.90;;;;;;5075630;28;20528;-56
2021/04/04 00:19:02;;;;;;;10.87;3.40;;;15.60;41.00;;;;;;5075300;28;20430;-52
2021/04/04 00:21:30;;;;;;;9.40;4.17;;;15.60;40.80;;;;;;5065491;28;20437;-53
2021/04/04 00:23:57;;;;;;;19.40;4.13;;;15.50;40.70;;;;;;5066585;28;20500;-56
2021/04/04 00:26:24;;;;;;;7.83;3.20;;;15.50;41.00;;;;;;5064677;28;20501;-54
2021/04/04 00:28:51;;;;;;;12.80;4.80;;;15.60;40.80;;;;;;5075706;28;20533;-53
2021/04/04 00:31:18;;;;;;;16.40;4.30;;;15.50;40.50;;;;;;5074926;28;20501;-56
2021/04/04 00:33:45;;;;;;;11.93;3.40;;;15.40;40.60;;;;;;5075450;28;20564;-53
2021/04/04 00:36:12;;;;;;;14.23;3.60;;;15.40;40.80;;;;;;5075313;28;20434;-56
2021/04/04 00:38:39;;;;;;;12.60;3.70;;;15.40;40.90;;;;;;5074690;28;20491;-54
2021/04/04 00:41:06;;;;;;;10.47;3.23;;;15.40;40.80;;;;;;5075374;28;20464;-54
2021/04/04 00:43:33;;;;;;;7.77;3.00;;;15.50;40.70;;;;;;5075449;28;20512;-55
2021/04/04 00:46:00;;;;;;;9.83;3.73;;;15.40;40.50;;;;;;5072204;28;20461;-53
2021/04/04 00:48:27;;;;;;;10.30;3.30;;;15.40;40.70;;;;;;5075289;28;20481;-51
2021/04/04 00:50:54;;;;;;;17.30;3.93;;;15.40;40.60;;;;;;5075532;28;20501;-51
2021/04/04 00:53:20;;;;;;;13.60;3.80;;;15.50;40.70;;;;;;5075581;28;20481;-53
2021/04/04 00:55:48;;;;;;;14.47;3.47;;;15.40;40.70;;;;;;5075172;28;20561;-53
2021/04/04 00:58:15;;;;;;;18.97;4.40;;;15.30;41.00;;;;;;5075367;28;20520;-54
2021/04/04 01:00:42;;;;;;;10.43;3.27;;;15.20;40.70;;;;;;5075107;28;20488;-56
2021/04/04 01:03:08;;;;;;;12.83;3.73;;;15.30;40.60;;;;;;5075415;28;20495;-56
2021/04/04 01:05:37;;;;;;;10.93;3.53;;;15.30;40.90;;;;;;5074882;28;20534;-52
2021/04/04 01:08:06;;;;;;;15.37;3.00;;;15.40;40.90;;;;;;5075098;28;20545;-51
2021/04/04 01:10:34;;;;;;;10.70;3.27;;;15.40;40.80;;;;;;5074752;28;20461;-56
2021/04/04 01:13:11;;;;;;;11.50;3.53;;;15.40;40.60;;;;;;5074808;28;20556;-53
2021/04/04 01:15:40;;;;;;;10.70;3.17;;;15.40;40.60;;;;;;5074876;28;20528;-52
2021/04/04 01:18:11;;;;;;;15.87;3.10;;;15.40;40.60;;;;;;5074907;28;20530;-53
2021/04/04 01:20:42;;;;;;;9.90;3.17;;;15.40;40.60;;;;;;5074754;28;20453;-56
2021/04/04 01:23:49;;;;;;;13.50;3.50;;;15.30;40.30;;;;;;5071078;28;20520;-54
2021/04/04 01:26:33;;;;;;;15.40;3.60;;;15.40;40.70;;;;;;5072098;28;20461;-55
2021/04/04 01:29:02;;;;;;;10.77;3.13;;;15.50;40.40;;;;;;5072926;28;20426;-54
2021/04/04 01:31:29;;;;;;;11.47;3.80;;;15.50;40.50;;;;;;5071593;28;20457;-54
2021/04/04 01:33:56;;;;;;;11.03;3.07;;;15.40;40.50;;;;;;5074072;28;20557;-55
2021/04/04 01:36:23;;;;;;;16.20;3.70;;;15.40;40.60;;;;;;5073813;28;20532;-54
2021/04/04 01:38:50;;;;;;;11.00;2.93;;;15.40;40.60;;;;;;5071147;28;20489;-52
2021/04/04 01:41:20;;;;;;;14.23;3.70;;;15.40;40.60;;;;;;5073678;28;20460;-54
2021/04/04 01:43:49;;;;;;;11.33;3.00;;;15.40;40.50;;;;;;5073569;28;20465;-53
2021/04/04 01:46:16;;;;;;;9.87;3.27;;;15.30;40.50;;;;;;5073862;28;20523;-54
2021/04/04 01:48:43;;;;;;;10.10;3.37;;;15.40;40.60;;;;;;5073754;28;20528;-54
2021/04/04 01:51:10;;;;;;;7.50;3.00;;;15.30;40.60;;;;;;5074183;28;20487;-55
2021/04/04 01:53:37;;;;;;;8.40;2.43;;;15.30;40.40;;;;;;5074015;28;20564;-55
2021/04/04 01:56:04;;;;;;;17.30;3.90;;;15.30;40.80;;;;;;5073666;28;20488;-54
2021/04/04 01:58:31;;;;;;;18.97;3.20;;;15.30;40.60;;;;;;5074120;28;20529;-54
2021/04/04 02:00:59;;;;;;;12.07;3.10;;;15.20;40.60;;;;;;5074214;28;20529;-54
2021/04/04 02:03:28;;;;;;;12.70;3.00;;;15.20;41.10;;;;;;5073877;28;20598;-55
2021/04/04 02:05:55;;;;;;;14.73;2.90;;;15.30;40.80;;;;;;5073489;28;20474;-54
2021/04/04 02:08:22;;;;;;;9.10;2.80;;;15.30;41.00;;;;;;5073808;28;20429;-54
2021/04/04 02:10:48;;;;;;;12.50;3.00;;;15.40;40.90;;;;;;5073590;28;20434;-53
2021/04/04 02:13:15;;;;;;;18.43;3.17;;;15.40;41.00;;;;;;5074149;28;20481;-54
2021/04/04 02:15:42;;;;;;;8.10;2.77;;;15.30;41.10;;;;;;5073431;28;20465;-55
2021/04/04 02:18:09;;;;;;;12.80;2.87;;;15.30;41.00;;;;;;5074010;28;20461;-54
2021/04/04 02:20:37;;;;;;;10.73;3.13;;;15.40;41.00;;;;;;5068038;28;20478;-54
2021/04/04 02:23:07;;;;;;;11.33;2.70;;;15.30;41.30;;;;;;5069901;28;20435;-55
2021/04/04 02:25:34;;;;;;;8.20;3.10;;;15.20;41.00;;;;;;5068397;28;20488;-55
2021/04/04 02:28:01;;;;;;;11.90;3.00;;;15.10;41.40;;;;;;5073563;28;20536;-51
2021/04/04 02:30:28;;;;;;;10.77;2.80;;;15.10;41.60;;;;;;5073617;28;20472;-51
2021/04/04 02:32:58;;;;;;;10.43;3.40;;;15.10;41.40;;;;;;5073386;28;20473;-55
2021/04/04 02:35:27;;;;;;;15.33;2.90;;;15.10;41.60;;;;;;5073411;28;20534;-53
2021/04/04 02:37:55;;;;;;;9.23;3.30;;;15.10;41.60;;;;;;5073773;28;20480;-54
2021/04/04 02:40:22;;;;;;;9.73;2.90;;;15.10;41.90;;;;;;5073860;28;20525;-51
2021/04/04 02:42:49;;;;;;;10.50;2.70;;;15.00;41.90;;;;;;5073594;28;20521;-54
2021/04/04 02:45:16;;;;;;;8.70;2.80;;;15.20;41.90;;;;;;5073137;28;20480;-49
2021/04/04 02:47:46;;;;;;;9.80;3.10;;;15.20;41.90;;;;;;5073483;28;20523;-56
2021/04/04 02:50:13;;;;;;;17.37;2.97;;;15.20;41.90;;;;;;5073509;28;20458;-56
2021/04/04 02:52:42;;;;;;;12.43;2.67;;;15.20;41.90;;;;;;5072984;28;20469;-53
2021/04/04 02:55:10;;;;;;;7.10;2.90;;;15.10;42.40;;;;;;5073160;28;20433;-56
2021/04/04 02:57:37;;;;;;;9.80;2.90;;;15.20;42.40;;;;;;5073450;28;20492;-56
2021/04/04 03:00:06;;;;;;;10.33;2.70;;;15.10;42.30;;;;;;5073336;28;20537;-56
2021/04/04 03:02:33;;;;;;;6.43;2.40;;;15.10;42.40;;;;;;5076107;28;20521;-56
2021/04/04 03:05:00;;;;;;;11.13;2.87;;;15.20;42.50;;;;;;5077331;28;20441;-56
2021/04/04 03:07:27;;;;;;;6.93;2.70;;;15.20;42.40;;;;;;5077507;28;20548;-56
2021/04/04 03:09:54;;;;;;;11.03;2.90;;;15.00;42.60;;;;;;5077221;28;20520;-55
2021/04/04 03:12:22;;;;;;;10.40;2.97;;;15.00;43.00;;;;;;5077139;28;20545;-53
2021/04/04 03:14:50;;;;;;;10.23;3.13;;;15.10;43.10;;;;;;5076677;28;20506;-56
2021/04/04 03:17:16;;;;;;;4.77;2.60;;;15.30;43.10;;;;;;5076906;28;20517;-56
2021/04/04 03:19:44;;;;;;;8.80;2.67;;;15.30;43.10;;;;;;5076476;28;20522;-56
2021/04/04 03:22:11;;;;;;;11.50;2.80;;;15.10;43.20;;;;;;5077116;28;20430;-56
2021/04/04 03:24:38;;;;;;;7.43;3.00;;;14.90;43.70;;;;;;5076590;28;20697;-57
2021/04/04 03:27:05;;;;;;;7.80;2.67;;;15.00;43.80;;;;;;5077350;28;20588;-55
2021/04/04 03:29:33;;;;;;;7.30;2.90;;;15.10;43.70;;;;;;5076782;28;20430;-55
2021/04/04 03:32:00;;;;;;;12.57;3.13;;;15.10;43.80;;;;;;5076670;28;20473;-53
2021/04/04 03:34:27;;;;;;;8.33;3.17;;;15.20;43.60;;;;;;5076073;28;20501;-56
2021/04/04 03:36:54;;;;;;;15.27;3.17;;;15.10;43.60;;;;;;5076645;28;20469;-56
2021/04/04 03:39:21;;;;;;;14.37;2.83;;;15.10;43.90;;;;;;5076728;28;20451;-55
2021/04/04 03:41:48;;;;;;;8.30;2.77;;;15.00;44.20;;;;;;5076556;28;20595;-56
2021/04/04 03:44:17;;;;;;;10.10;2.63;;;14.90;44.50;;;;;;5076688;28;20505;-56
2021/04/04 03:46:45;;;;;;;12.60;3.83;;;14.90;44.50;;;;;;5076433;28;20524;-55
2021/04/04 03:49:12;;;;;;;10.20;2.60;;;14.90;44.60;;;;;;5076476;28;20488;-55
2021/04/04 03:51:39;;;;;;;15.80;3.80;;;15.00;44.50;;;;;;5076430;28;20452;-55
2021/04/04 03:54:06;;;;;;;8.33;2.50;;;15.00;44.40;;;;;;5076372;28;20549;-56
2021/04/04 03:56:33;;;;;;;14.13;3.53;;;14.90;44.50;;;;;;5076203;28;20471;-56
2021/04/04 03:59:02;;;;;;;7.63;2.33;;;14.90;44.60;;;;;;5076315;28;20452;-56
2021/04/04 04:01:30;;;;;;;6.70;2.80;;;14.80;44.80;;;;;;5076362;28;20472;-56
2021/04/04 04:03:58;;;;;;;5.03;2.40;;;14.80;44.80;;;;;;5075809;28;20495;-55
2021/04/04 04:06:27;;;;;;;5.70;2.13;;;14.90;45.00;;;;;;5076165;28;20438;-56
2021/04/04 04:08:54;;;;;;;9.10;2.33;;;14.90;45.00;;;;;;5075973;28;20426;-56
2021/04/04 04:11:21;;;;;;;12.20;2.93;;;14.90;44.90;;;;;;5075789;28;20491;-55
2021/04/04 04:13:47;;;;;;;7.30;3.00;;;14.80;44.80;;;;;;5074575;28;20586;-55
2021/04/04 04:16:15;;;;;;;9.40;2.63;;;14.80;45.20;;;;;;5075689;28;20507;-56
2021/04/04 04:18:42;;;;;;;9.63;2.53;;;14.80;45.20;;;;;;5075716;28;20464;-54
2021/04/04 04:21:10;;;;;;;11.07;2.70;;;14.90;45.20;;;;;;5076057;28;20441;-55
2021/04/04 04:23:38;;;;;;;10.40;3.40;;;14.70;45.40;;;;;;5075751;28;20516;-56
2021/04/04 04:26:04;;;;;;;7.40;3.00;;;14.70;45.60;;;;;;5075529;28;20457;-56
2021/04/04 04:28:31;;;;;;;5.80;2.00;;;14.70;45.60;;;;;;5076100;28;20756;-56
2021/04/04 04:30:58;;;;;;;10.43;2.73;;;14.70;45.70;;;;;;5075576;28;20441;-56
2021/04/04 04:33:25;;;;;;;10.33;3.20;;;14.60;45.80;;;;;;5075534;28;20538;-54
2021/04/04 04:35:52;;;;;;;8.30;2.63;;;14.60;45.80;;;;;;5075561;28;20473;-56
2021/04/04 04:38:20;;;;;;;11.60;2.77;;;14.60;46.10;;;;;;5075287;28;20525;-56
2021/04/04 04:40:46;;;;;;;6.63;2.60;;;14.50;46.10;;;;;;5075327;28;20506;-57
2021/04/04 04:43:15;;;;;;;12.33;3.73;;;14.50;46.10;;;;;;5075705;28;20521;-56
2021/04/04 04:45:41;;;;;;;7.77;3.00;;;14.60;46.10;;;;;;5075186;28;20438;-56
2021/04/04 04:48:09;;;;;;;8.73;3.00;;;14.70;46.10;;;;;;5075734;28;20529;-54
2021/04/04 04:50:36;;;;;;;11.07;3.00;;;14.70;46.00;;;;;;5075033;28;20499;-56
2021/04/04 04:53:03;;;;;;;14.80;3.27;;;14.60;46.20;;;;;;5074993;28;20560;-56
2021/04/04 04:55:31;;;;;;;10.93;3.30;;;14.50;46.50;;;;;;5074759;28;20512;-54
2021/04/04 04:57:58;;;;;;;11.97;3.33;;;14.50;46.40;;;;;;5074691;28;20467;-56
2021/04/04 05:00:25;;;;;;;13.33;2.43;;;14.50;46.40;;;;;;5075392;28;20525;-56
2021/04/04 05:02:52;;;;;;;9.70;3.03;;;14.40;46.60;;;;;;5074739;28;20528;-56
2021/04/04 05:05:18;;;;;;;8.67;2.73;;;14.50;46.70;;;;;;5074551;28;20438;-56
2021/04/04 05:07:45;;;;;;;9.83;3.00;;;14.60;46.50;;;;;;5074717;28;20476;-56
2021/04/04 05:10:13;;;;;;;8.30;3.10;;;14.50;46.50;;;;;;5074926;28;20549;-56
2021/04/04 05:12:45;;;;;;;9.83;3.20;;;14.40;46.90;;;;;;5074603;28;20495;-56
2021/04/04 05:15:12;;;;;;;10.33;2.80;;;14.50;47.00;;;;;;5074845;28;20538;-53
2021/04/04 05:17:39;;;;;;;14.03;4.00;;;14.40;47.10;;;;;;5074599;28;20437;-56
2021/04/04 05:20:07;;;;;;;9.77;2.70;;;14.40;47.00;;;;;;5074622;28;20491;-56
2021/04/04 05:22:34;;;;;;;10.57;2.90;;;14.50;47.00;;;;;;5074241;28;20481;-57
2021/04/04 05:25:01;;;;;;;15.13;3.37;;;14.40;47.00;;;;;;5062196;28;20441;-56
2021/04/04 05:27:28;;;;;;;14.53;2.67;;;14.50;47.00;;;;;;5065575;28;20437;-56
2021/04/04 05:29:58;;;;;;;8.23;2.43;;;14.50;46.90;;;;;;5074018;28;20430;-54
2021/04/04 05:32:25;;;;;;;13.43;3.00;;;14.40;47.10;;;;;;5064885;28;20518;-55
2021/04/04 05:34:51;;;;;;;8.47;2.73;;;14.50;47.10;;;;;;5053597;28;20478;-55
2021/04/04 05:37:18;;;;;;;14.97;2.70;;;14.60;47.30;;;;;;5054455;28;20496;-55
2021/04/04 05:39:45;;;;;;;7.43;2.50;;;14.60;47.20;;;;;;5054706;28;20478;-54
2021/04/04 05:42:14;;;;;;;9.13;2.63;;;14.50;47.30;;;;;;5054462;28;20506;-53
2021/04/04 05:44:42;;;;;;;8.00;2.80;;;14.50;47.50;;;;;;5053995;28;20516;-55
2021/04/04 05:47:15;;;;;;;9.90;2.87;;;14.50;47.40;;;;;;5053903;28;20446;-54
2021/04/04 05:49:51;;;;;;;12.00;3.00;;;14.50;47.50;;;;;;5054275;28;20450;-55
2021/04/04 05:52:28;;;;;;;11.90;3.07;;;14.40;47.60;;;;;;5054341;28;20474;-55
2021/04/04 05:55:13;;;;;;;5.77;2.30;;;14.40;47.60;;;;;;5053840;28;20473;-54
2021/04/04 05:57:42;;;;;;;9.83;3.20;;;14.50;48.10;;;;;;5053649;28;20469;-56
2021/04/04 06:00:10;;;;;;;8.53;3.00;;;14.50;47.30;;;;;;5053645;28;20442;-56
2021/04/04 06:02:54;;;;;;;11.87;2.33;;;14.60;47.30;;;;;;5056283;28;20472;-55
2021/04/04 06:05:47;;;;;;;8.40;2.93;;;14.50;47.10;;;;;;5072193;28;20517;-52
2021/04/04 06:08:25;;;;;;;8.73;2.90;;;14.60;47.30;;;;;;5071151;28;20488;-51
2021/04/04 06:10:56;;;;;;;7.80;2.77;;;14.60;47.40;;;;;;5071385;28;20521;-54
2021/04/04 06:13:28;;;;;;;9.50;3.17;;;14.50;47.40;;;;;;5073503;28;20508;-53
2021/04/04 06:16:07;;;;;;;16.70;3.60;;;14.60;47.30;;;;;;5071330;28;20467;-54
2021/04/04 06:18:42;;;;;;;7.83;2.87;;;14.50;47.30;;;;;;5071449;28;20462;-54
2021/04/04 06:21:13;;;;;;;16.53;3.50;;;14.50;47.00;;;;;;5073690;28;20524;-54
2021/04/04 06:23:50;;;;;;;9.17;3.20;;;14.50;47.20;;;;;;5054317;28;20446;-55
2021/04/04 06:26:26;;;;;;;13.83;3.60;;;14.50;47.40;;;;;;5054792;28;20450;-54
2021/04/04 06:28:54;;;;;;;8.93;3.77;;;14.60;47.10;;;;;;5073153;28;20517;-54
2021/04/04 06:31:22;;;;;;;8.77;3.20;;;14.70;46.90;;;;;;5073403;28;20501;-53
2021/04/04 06:33:54;;;;;;;8.23;3.00;;;14.50;47.00;;;;;;5062085;28;20470;-54
2021/04/04 06:36:36;;;;;;;14.93;4.07;;;14.50;47.20;;;;;;5071613;28;20468;-56
2021/04/04 06:39:06;;;;;;;8.57;3.67;;;14.60;46.90;;;;;;5075711;28;20477;-56
2021/04/04 06:41:43;;;;;;;9.47;3.20;;;14.60;47.00;;;;;;5077218;28;20472;-56
2021/04/04 06:44:16;;;;;;;11.03;3.43;;;14.60;46.80;;;;;;5077237;28;20465;-56
2021/04/04 06:46:48;;;;;;;11.47;3.73;;;14.60;47.00;;;;;;5075443;28;20438;-53
2021/04/04 06:49:23;;;;;;;10.73;3.57;;;14.70;46.90;;;;;;5074144;28;20476;-54
2021/04/04 06:51:54;;;;;;;9.80;3.43;;;14.60;46.70;;;;;;5077245;28;20434;-52
2021/04/04 06:54:27;;;;;;;5.20;3.33;;;14.70;46.80;;;;;;5077554;28;20548;-56
2021/04/04 06:57:02;;;;;;;9.10;3.60;;;14.60;46.80;;;;;;5077449;28;20482;-56
2021/04/04 06:59:32;;;;;;;10.00;4.90;;;14.70;46.90;;;;;;5077225;28;20479;-56
2021/04/04 07:02:01;;;;;;;12.57;4.10;;;14.20;47.60;;;;;;5077062;28;20451;-54
2021/04/04 07:04:35;;;;;;;13.30;4.20;;;13.70;48.20;;;;;;5077028;28;20512;-55
2021/04/04 07:07:20;;;;;;;12.40;4.57;;;13.30;48.40;;;;;;5077481;28;20441;-56
2021/04/04 07:09:55;;;;;;;16.67;4.47;;;13.00;49.20;;;;;;5077126;28;20438;-57
2021/04/04 07:12:38;;;;;;;17.07;4.40;;;13.60;49.70;;;;;;5077451;28;20527;-59
2021/04/04 07:15:08;;;;;;;12.17;3.90;;;14.60;47.70;;;;;;5077022;28;20497;-59
2021/04/04 07:17:49;;;;;;;9.33;3.50;;;14.90;46.40;;;;;;5077337;28;20512;-59
2021/04/04 07:20:40;;;;;;;11.83;3.30;;;14.70;46.30;;;;;;5076949;28;20451;-59
2021/04/04 07:23:46;;;;;;;12.50;3.60;;;14.60;46.30;;;;;;5076738;28;20433;-59
2021/04/04 07:26:36;;;;;;;8.70;3.27;;;14.40;46.30;;;;;;5054878;28;20438;-60
2021/04/04 07:29:25;;;;;;;11.63;3.37;;;14.30;46.20;;;;;;5070399;28;20484;-61
2021/04/04 07:31:53;;;;;;;6.80;3.23;;;14.40;46.00;;;;;;5075064;28;20491;-59
2021/04/04 07:34:23;;;;;;;7.27;3.07;;;14.60;45.70;;;;;;5075387;28;20511;-60
2021/04/04 07:36:53;;;;;;;10.73;3.27;;;14.60;45.60;;;;;;5059735;28;20479;-59
2021/04/04 07:39:24;;;;;;;6.47;3.10;;;14.60;45.90;;;;;;5056785;28;20470;-60
2021/04/04 07:41:55;;;;;;;7.97;3.47;;;14.70;46.10;;;;;;5056629;28;20470;-59
2021/04/04 07:44:24;;;;;;;10.60;3.07;;;14.70;46.00;;;;;;5056580;28;20526;-59
2021/04/04 07:46:52;;;;;;;11.60;3.83;;;14.70;46.00;;;;;;5056398;28;20466;-60
2021/04/04 07:49:29;;;;;;;9.63;2.87;;;14.60;45.90;;;;;;5055922;28;20454;-59
2021/04/04 07:51:57;;;;;;;7.30;3.30;;;14.70;46.10;;;;;;5056453;28;20487;-58
2021/04/04 07:54:28;;;;;;;9.27;3.57;;;14.70;46.30;;;;;;5056032;28;20559;-58
2021/04/04 07:56:57;;;;;;;12.83;4.10;;;14.70;46.40;;;;;;5056549;28;20470;-61
2021/04/04 07:59:26;;;;;;;6.43;3.63;;;14.80;46.70;;;;;;5056166;28;20504;-59
2021/04/04 08:01:55;;;;;;;6.47;2.70;;;14.80;46.70;;;;;;5056243;28;20438;-55
2021/04/04 08:04:25;;;;;;;9.20;3.30;;;14.80;46.80;;;;;;5056101;28;20477;-60
2021/04/04 08:06:55;;;;;;;7.63;3.13;;;14.80;47.00;;;;;;5056414;28;20431;-60
2021/04/04 08:09:28;;;;;;;5.57;2.87;;;14.90;47.00;;;;;;5056496;28;20478;-59
2021/04/04 08:12:02;;;;;;;14.27;3.57;;;14.80;47.20;;;;;;5056094;28;20553;-59
2021/04/04 08:14:34;;;;;;;9.00;3.77;;;14.80;47.20;;;;;;5055783;28;20573;-58
2021/04/04 08:17:01;;;;;;;10.97;3.13;;;14.80;47.40;;;;;;5055965;28;20529;-56
2021/04/04 08:19:28;;;;;;;9.73;2.97;;;14.80;47.50;;;;;;5056015;28;20474;-58
2021/04/04 08:21:59;;;;;;;8.90;3.50;;;14.80;47.50;;;;;;5056036;28;20521;-58
2021/04/04 08:24:30;;;;;;;5.80;3.70;;;14.80;47.50;;;;;;5055856;28;20439;-59
2021/04/04 08:27:00;;;;;;;10.33;3.70;;;14.80;47.50;;;;;;5056016;28;20457;-59
2021/04/04 08:29:29;;;;;;;7.50;3.23;;;14.80;47.40;;;;;;5055600;28;20498;-61
2021/04/04 08:31:59;;;;;;;5.47;3.07;;;14.90;47.60;;;;;;5055622;28;20518;-60
2021/04/04 08:34:27;;;;;;;5.87;3.77;;;14.80;47.70;;;;;;5055381;28;20494;-60
2021/04/04 08:36:56;;;;;;;11.40;3.83;;;14.90;48.00;;;;;;5055436;28;20468;-59
2021/04/04 08:39:24;;;;;;;9.93;3.67;;;14.90;48.20;;;;;;5054971;28;20477;-59
2021/04/04 08:41:52;;;;;;;9.13;3.47;;;14.90;48.20;;;;;;5055230;28;20549;-59
2021/04/04 08:44:22;;;;;;;8.10;3.60;;;15.00;48.40;;;;;;5055120;28;20550;-59
2021/04/04 08:46:52;;;;;;;5.90;3.33;;;15.00;48.80;;;;;;5055589;28;20497;-59
2021/04/04 08:49:19;;;;;;;9.33;3.77;;;15.10;49.00;;;;;;5055216;28;20446;-59
2021/04/04 08:51:51;;;;;;;8.33;3.83;;;15.10;49.00;;;;;;5055431;28;20483;-59
2021/04/04 08:54:19;;;;;;;5.93;2.90;;;15.10;49.00;;;;;;5055029;28;20556;-59
2021/04/04 08:56:46;;;;;;;9.03;3.87;;;15.10;49.00;;;;;;5055148;28;20508;-59
2021/04/04 08:59:15;;;;;;;8.30;3.27;;;15.00;49.20;;;;;;5054459;28;20439;-59
2021/04/04 09:01:45;;;;;;;6.90;3.50;;;15.00;49.10;;;;;;5055172;28;20481;-59
2021/04/04 09:04:13;;;;;;;10.33;3.13;;;15.10;49.20;;;;;;5055285;28;20431;-59
2021/04/04 09:06:40;;;;;;;10.40;3.03;;;15.00;49.20;;;;;;5054927;28;20438;-59
2021/04/04 09:09:15;;;;;;;10.37;3.57;;;15.00;49.20;;;;;;5067913;28;20469;-60
2021/04/04 09:11:42;;;;;;;13.53;3.53;;;15.00;49.30;;;;;;5074923;28;20441;-59
2021/04/04 09:14:09;;;;;;;9.10;3.47;;;15.00;49.20;;;;;;5074923;28;20717;-58
2021/04/04 09:16:38;;;;;;;9.63;4.10;;;15.00;49.00;;;;;;5074822;28;20525;-60
2021/04/04 09:19:05;;;;;;;8.17;3.20;;;15.00;48.90;;;;;;5067495;28;20489;-59
2021/04/04 09:21:35;;;;;;;9.87;3.53;;;14.90;48.80;;;;;;5070183;28;20468;-59
2021/04/04 09:24:03;;;;;;;7.03;3.90;;;14.90;48.60;;;;;;5074753;28;20532;-59
2021/04/04 09:26:30;;;;;;;8.17;3.83;;;15.00;48.70;;;;;;5074832;28;20462;-60
2021/04/04 09:28:57;;;;;;;13.53;3.80;;;15.00;48.60;;;;;;5074546;28;20438;-60
2021/04/04 09:31:25;;;;;;;11.00;3.30;;;15.00;48.40;;;;;;5074340;28;20532;-60
2021/04/04 09:34:00;;;;;;;10.57;3.47;;;15.10;48.20;;;;;;5064852;28;20504;-59
2021/04/04 09:36:39;;;;;;;8.10;3.73;;;15.20;48.00;;;;;;5074117;28;20433;-59
2021/04/04 09:39:07;;;;;;;6.67;3.10;;;15.10;47.80;;;;;;5074641;28;20520;-59
2021/04/04 09:41:34;;;;;;;6.90;3.60;;;15.10;47.70;;;;;;5059990;28;20434;-59
2021/04/04 09:44:03;;;;;;;6.23;3.20;;;15.20;47.50;;;;;;5074654;28;20442;-59
2021/04/04 09:46:30;;;;;;;6.40;2.87;;;15.20;47.30;;;;;;5074705;28;20469;-59
2021/04/04 09:48:57;;;;;;;6.20;3.37;;;15.20;47.20;;;;;;5074527;28;20441;-59
2021/04/04 09:51:24;;;;;;;8.83;3.80;;;15.20;47.20;;;;;;5074634;28;20516;-59
2021/04/04 09:53:51;;;;;;;11.80;3.20;;;15.10;47.20;;;;;;5074556;28;20497;-59
2021/04/04 09:56:19;;;;;;;12.23;3.57;;;15.20;47.20;;;;;;5074249;28;20442;-59
2021/04/04 09:58:47;;;;;;;7.37;3.23;;;15.20;47.00;;;;;;5074312;28;20447;-60
2021/04/04 10:01:15;;;;;;;5.77;3.00;;;15.20;46.90;;;;;;5074496;28;20517;-60
2021/04/04 10:03:42;;;;;;;4.60;3.13;;;15.10;46.90;;;;;;5074398;28;20524;-60
2021/04/04 10:06:13;;;;;;;9.57;3.37;;;15.10;46.90;;;;;;5076522;28;20437;-60
2021/04/04 10:08:41;;;;;;;10.27;3.50;;;15.00;46.90;;;;;;5074557;28;20488;-60
2021/04/04 10:11:14;;;;;;;5.40;3.20;;;15.10;46.90;;;;;;5073464;28;20434;-60
2021/04/04 10:13:41;;;;;;;8.97;3.67;;;15.10;46.80;;;;;;5074264;28;20438;-59
2021/04/04 10:16:17;;;;;;;7.07;3.53;;;15.20;46.60;;;;;;5073771;28;20487;-57
2021/04/04 10:18:59;;;;;;;6.97;3.53;;;15.30;46.40;;;;;;5074445;28;20430;-57
2021/04/04 10:21:27;;;;;;;6.27;3.17;;;15.30;46.30;;;;;;5074138;28;20433;-59
2021/04/04 10:23:54;;;;;;;4.07;2.77;;;15.30;46.30;;;;;;5074031;28;20437;-59
2021/04/04 10:26:21;;;;;;;5.20;2.70;;;15.30;46.30;;;;;;5074057;28;20473;-60
2021/04/04 10:28:51;;;;;;;6.50;3.10;;;15.20;46.30;;;;;;5073976;28;20441;-60
2021/04/04 10:31:18;;;;;;;3.97;2.73;;;15.20;46.30;;;;;;5074240;28;20449;-60
2021/04/04 10:33:44;;;;;;;7.43;3.33;;;15.20;46.20;;;;;;5074073;28;20461;-60
2021/04/04 10:36:24;;;;;;;5.23;2.57;;;15.20;46.30;;;;;;5073837;28;20445;-59
2021/04/04 10:38:52;;;;;;;3.87;3.00;;;15.20;46.30;;;;;;5073957;28;20483;-60
2021/04/04 10:41:29;;;;;;;5.60;3.47;;;15.20;46.10;;;;;;5074063;28;20515;-60
2021/04/04 10:43:56;;;;;;;7.80;3.70;;;15.20;46.10;;;;;;5074400;28;20476;-59
2021/04/04 10:46:24;;;;;;;4.90;3.30;;;15.20;46.10;;;;;;5073818;28;20441;-59
2021/04/04 10:48:51;;;;;;;5.60;3.43;;;15.20;46.20;;;;;;5073726;28;20481;-59
2021/04/04 10:51:19;;;;;;;6.77;3.30;;;15.20;46.30;;;;;;5073977;28;20461;-59
2021/04/04 10:53:46;;;;;;;7.33;3.60;;;15.20;46.10;;;;;;5073634;28;20533;-60
2021/04/04 10:56:14;;;;;;;5.87;3.10;;;15.20;46.10;;;;;;5073783;28;20437;-59
2021/04/04 10:58:41;;;;;;;5.57;3.10;;;15.20;46.10;;;;;;5073671;28;20441;-59
2021/04/04 11:01:10;;;;;;;5.00;2.93;;;15.10;46.00;;;;;;5074188;28;20503;-59
2021/04/04 11:03:37;;;;;;;5.73;3.30;;;15.20;46.00;;;;;;5073751;28;20441;-60
2021/04/04 11:06:05;;;;;;;9.57;2.80;;;15.20;45.90;;;;;;5073419;28;20524;-57
2021/04/04 11:08:32;;;;;;;3.63;2.60;;;15.20;45.90;;;;;;5073927;28;20442;-57
2021/04/04 11:11:00;;;;;;;8.10;3.40;;;15.30;46.00;;;;;;5073859;28;20434;-59
2021/04/04 11:13:27;;;;;;;6.73;2.93;;;15.30;45.80;;;;;;5073976;28;20493;-59
2021/04/04 11:15:58;;;;;;;6.83;2.97;;;15.40;45.70;;;;;;5073417;28;20473;-60
2021/04/04 11:18:28;;;;;;;4.53;2.77;;;15.40;45.50;;;;;;5073766;28;20441;-59
2021/04/04 11:20:58;;;;;;;4.87;3.33;;;15.50;45.40;;;;;;5073726;28;20532;-59
2021/04/04 11:23:25;;;;;;;4.13;2.80;;;15.60;45.20;;;;;;5075777;28;20491;-59
2021/04/04 11:25:52;;;;;;;5.33;3.50;;;15.60;45.20;;;;;;5077128;28;20461;-59
2021/04/04 11:28:20;;;;;;;6.13;3.37;;;15.70;45.10;;;;;;5077368;28;20441;-59
2021/04/04 11:30:48;;;;;;;3.40;3.00;;;15.70;45.00;;;;;;5076966;28;20480;-60
2021/04/04 11:33:23;;;;;;;4.97;3.00;;;15.60;45.10;;;;;;5077284;28;20503;-59
2021/04/04 11:36:08;;;;;;;7.70;2.73;;;15.60;45.20;;;;;;5077065;28;20476;-59
2021/04/04 11:38:36;;;;;;;3.97;2.53;;;15.50;45.30;;;;;;5077048;28;20490;-59
2021/04/04 11:41:12;;;;;;;5.60;3.10;;;15.50;45.50;;;;;;5077135;28;20459;-59
2021/04/04 11:43:39;;;;;;;7.47;3.30;;;15.40;45.60;;;;;;5076914;28;20492;-59
2021/04/04 11:46:22;;;;;;;3.07;2.77;;;15.40;45.70;;;;;;5076878;28;20465;-59
2021/04/04 11:48:49;;;;;;;10.80;3.77;;;15.40;45.70;;;;;;5076458;28;20441;-60
2021/04/04 11:51:32;;;;;;;4.20;2.70;;;15.40;45.70;;;;;;5076704;28;20441;-59
2021/04/04 11:53:59;;;;;;;5.80;3.10;;;15.40;45.60;;;;;;5076517;28;20521;-59
2021/04/04 11:56:42;;;;;;;5.67;3.00;;;15.40;45.50;;;;;;5077007;28;20498;-60
2021/04/04 11:59:09;;;;;;;5.77;3.17;;;15.40;45.50;;;;;;5076889;28;20437;-59
2021/04/04 12:01:36;;;;;;;7.60;3.03;;;15.30;45.60;;;;;;5076772;28;20488;-59
2021/04/04 12:04:20;;;;;;;7.70;2.83;;;15.30;45.60;;;;;;5076737;28;20457;-59
2021/04/04 12:07:00;;;;;;;4.77;3.00;;;15.30;45.70;;;;;;5076722;28;20471;-59
2021/04/04 12:09:27;;;;;;;5.27;2.50;;;15.30;45.70;;;;;;5076640;28;20442;-59
2021/04/04 12:11:53;;;;;;;6.17;3.30;;;15.50;45.60;;;;;;5076691;28;20532;-59
2021/04/04 12:14:20;;;;;;;7.23;2.77;;;15.70;45.10;;;;;;5076336;28;20561;-60
2021/04/04 12:16:48;;;;;;;7.33;2.80;;;15.70;45.00;;;;;;5066722;28;20449;-59
2021/04/04 12:19:23;;;;;;;5.83;2.80;;;15.60;45.10;;;;;;5056337;28;20439;-59
2021/04/04 12:21:50;;;;;;;4.23;2.90;;;15.60;45.20;;;;;;5056502;28;20513;-60
2021/04/04 12:24:17;;;;;;;5.60;2.70;;;15.60;45.30;;;;;;5056201;28;20534;-59
2021/04/04 12:26:44;;;;;;;5.83;2.77;;;15.60;45.20;;;;;;5056066;28;20454;-59
2021/04/04 12:29:11;;;;;;;5.37;3.07;;;15.60;45.20;;;;;;5056232;28;20435;-59
2021/04/04 12:31:39;;;;;;;5.43;2.83;;;15.60;45.20;;;;;;5055842;28;20525;-59
2021/04/04 12:34:07;;;;;;;6.23;3.00;;;15.60;45.20;;;;;;5054847;28;20475;-60
2021/04/04 12:36:43;;;;;;;9.70;3.00;;;15.60;45.20;;;;;;5056100;28;20514;-60
2021/04/04 12:39:10;;;;;;;3.60;2.70;;;15.60;45.20;;;;;;5056299;28;20418;-59
2021/04/04 12:41:37;;;;;;;4.63;2.80;;;15.60;45.20;;;;;;5055824;28;20434;-59
2021/04/04 12:44:04;;;;;;;2.97;2.47;;;15.60;45.20;;;;;;5055601;28;20502;-59
2021/04/04 12:46:31;;;;;;;9.20;3.13;;;15.60;45.20;;;;;;5055729;28;20515;-59
2021/04/04 12:48:58;;;;;;;5.77;2.80;;;15.60;45.20;;;;;;5055623;28;20518;-59
2021/04/04 12:51:26;;;;;;;4.63;2.77;;;15.60;45.20;;;;;;5055662;28;20500;-59
2021/04/04 12:53:57;;;;;;;3.13;2.40;;;15.70;45.20;;;;;;5062733;28;20418;-60
2021/04/04 12:56:34;;;;;;;3.07;2.60;;;15.70;45.10;;;;;;5075314;28;20484;-59